PHSTZ EHSE-EHSE
Flight info
| Callsign | PHSTZ |
|---|---|
| Flight time | 0h 5m |
| Altitude | 1000 |
| Route | VFR |
| Aircraft | DA40/L-SBDGRY/S |
Departure
| Time | 2026-04-18 19:33 |
|---|---|
| Airport | Breda International Airport (EHSE) |
Arrival
| Time | 2026-04-18 19:38 |
|---|---|
| Airport | Breda International Airport (EHSE) |
| Time | Latitude | Longitude | Altitude | Speed | Heading |
|---|---|---|---|---|---|
| 2026-04-18 19:23 | 51.55524 | 4.54993 | 34 ft | 0 kts | 178° |
| 2026-04-18 19:27 | 51.55523 | 4.54993 | 34 ft | 4 kts | 178° |
| 2026-04-18 19:27 | 51.55492 | 4.54995 | 33 ft | 5 kts | 172° |
| 2026-04-18 19:28 | 51.55470 | 4.55032 | 33 ft | 0 kts | 90° |
| 2026-04-18 19:29 | 51.55492 | 4.55113 | 31 ft | 10 kts | 66° |
| 2026-04-18 19:29 | 51.55520 | 4.55216 | 30 ft | 9 kts | 66° |
| 2026-04-18 19:30 | 51.55541 | 4.55296 | 30 ft | 7 kts | 65° |
| 2026-04-18 19:30 | 51.55560 | 4.55367 | 30 ft | 8 kts | 66° |
| 2026-04-18 19:30 | 51.55582 | 4.55445 | 30 ft | 7 kts | 68° |
| 2026-04-18 19:30 | 51.55612 | 4.55555 | 29 ft | 13 kts | 66° |
| 2026-04-18 19:31 | 51.55656 | 4.55716 | 32 ft | 14 kts | 74° |
| 2026-04-18 19:31 | 51.55685 | 4.55840 | 31 ft | 8 kts | 82° |
| 2026-04-18 19:31 | 51.55669 | 4.55875 | 32 ft | 3 kts | 158° |
| 2026-04-18 19:31 | 51.55642 | 4.55871 | 33 ft | 6 kts | 243° |
| 2026-04-18 19:32 | 51.55555 | 4.55536 | 30 ft | 58 kts | 246° |
| 2026-04-18 19:32 | 51.55361 | 4.54886 | 193 ft | 66 kts | 245° |
| 2026-04-18 19:32 | 51.55164 | 4.54200 | 369 ft | 69 kts | 247° |
| 2026-04-18 19:32 | 51.54914 | 4.53546 | 587 ft | 68 kts | 239° |
| 2026-04-18 19:33 | 51.54497 | 4.53282 | 693 ft | 82 kts | 154° |
| 2026-04-18 19:33 | 51.54320 | 4.54012 | 831 ft | 85 kts | 57° |
| 2026-04-18 19:33 | 51.54516 | 4.54893 | 992 ft | 83 kts | 65° |
| 2026-04-18 19:33 | 51.54695 | 4.55761 | 1098 ft | 81 kts | 62° |
| 2026-04-18 19:34 | 51.54887 | 4.56615 | 1161 ft | 82 kts | 63° |
| 2026-04-18 19:34 | 51.55084 | 4.57418 | 985 ft | 78 kts | 60° |
| 2026-04-18 19:34 | 51.55506 | 4.57758 | 733 ft | 69 kts | 342° |
| 2026-04-18 19:34 | 51.55908 | 4.57383 | 538 ft | 74 kts | 296° |
| 2026-04-18 19:35 | 51.55818 | 4.56558 | 292 ft | 76 kts | 254° |
| 2026-04-18 19:35 | 51.55623 | 4.55796 | 40 ft | 68 kts | 253° |
| 2026-04-18 19:35 | 51.55456 | 4.55179 | 84 ft | 63 kts | 246° |
| 2026-04-18 19:35 | 51.55241 | 4.54514 | 240 ft | 71 kts | 239° |
| 2026-04-18 19:36 | 51.54767 | 4.54377 | 436 ft | 78 kts | 150° |
| 2026-04-18 19:36 | 51.54469 | 4.55084 | 550 ft | 88 kts | 72° |
| 2026-04-18 19:36 | 51.54747 | 4.55980 | 730 ft | 98 kts | 57° |
| 2026-04-18 19:36 | 51.55080 | 4.56957 | 882 ft | 98 kts | 55° |
| 2026-04-18 19:37 | 51.55404 | 4.57880 | 849 ft | 94 kts | 51° |
| 2026-04-18 19:37 | 51.55935 | 4.58160 | 679 ft | 87 kts | 332° |
| 2026-04-18 19:37 | 51.56070 | 4.57299 | 451 ft | 86 kts | 246° |
| 2026-04-18 19:37 | 51.55817 | 4.56553 | 259 ft | 69 kts | 252° |
| 2026-04-18 19:38 | 51.55635 | 4.55861 | 57 ft | 65 kts | 250° |
| 2026-04-18 19:38 | 51.55490 | 4.55289 | 30 ft | 49 kts | 246° |
| 2026-04-18 19:38 | 51.55310 | 4.54670 | 158 ft | 65 kts | 245° |
| 2026-04-18 19:38 | 51.55137 | 4.53971 | 304 ft | 73 kts | 248° |
| 2026-04-18 19:39 | 51.54887 | 4.53184 | 439 ft | 84 kts | 246° |
| 2026-04-18 19:39 | 51.54676 | 4.52312 | 656 ft | 84 kts | 261° |
| 2026-04-18 19:39 | 51.54640 | 4.51342 | 893 ft | 87 kts | 277° |
| 2026-04-18 19:39 | 51.54805 | 4.50417 | 1115 ft | 86 kts | 303° |
| 2026-04-18 19:40 | 51.55193 | 4.49714 | 1269 ft | 83 kts | 319° |
| 2026-04-18 19:40 | 51.55667 | 4.49139 | 1264 ft | 93 kts | 339° |
| 2026-04-18 19:40 | 51.56232 | 4.48730 | 1387 ft | 90 kts | 339° |
| 2026-04-18 19:40 | 51.56816 | 4.48323 | 1415 ft | 93 kts | 338° |
| 2026-04-18 19:41 | 51.57393 | 4.47788 | 1460 ft | 94 kts | 328° |
| 2026-04-18 19:41 | 51.57928 | 4.47151 | 1487 ft | 93 kts | 328° |
| 2026-04-18 19:41 | 51.58464 | 4.46622 | 1561 ft | 91 kts | 335° |
| 2026-04-18 19:41 | 51.59018 | 4.46157 | 1612 ft | 91 kts | 340° |
| 2026-04-18 19:42 | 51.59389 | 4.45260 | 1480 ft | 115 kts | 281° |
| 2026-04-18 19:42 | 51.59710 | 4.44334 | 1445 ft | 103 kts | 355° |
| 2026-04-18 19:42 | 51.60000 | 4.45235 | 1223 ft | 129 kts | 118° |
| 2026-04-18 19:42 | 51.59535 | 4.46428 | 1241 ft | 121 kts | 120° |
| 2026-04-18 19:43 | 51.59186 | 4.47314 | 1757 ft | 88 kts | 113° |
| 2026-04-18 19:43 | 51.58895 | 4.48192 | 2012 ft | 86 kts | 110° |
| 2026-04-18 19:43 | 51.58620 | 4.49052 | 2164 ft | 102 kts | 109° |
| 2026-04-18 19:43 | 51.58350 | 4.50062 | 2487 ft | 91 kts | 106° |
| 2026-04-18 19:44 | 51.58124 | 4.51008 | 2744 ft | 96 kts | 102° |
| 2026-04-18 19:44 | 51.57881 | 4.52130 | 2890 ft | 103 kts | 94° |
| 2026-04-18 19:44 | 51.57891 | 4.51959 | 2590 ft | 99 kts | 309° |
| 2026-04-18 19:45 | 51.58484 | 4.51318 | 2689 ft | 107 kts | 340° |
| 2026-04-18 19:45 | 51.58905 | 4.51907 | 3288 ft | 64 kts | 58° |
| 2026-04-18 19:45 | 51.58916 | 4.51877 | 2485 ft | 141 kts | 268° |
| 2026-04-18 19:45 | 51.58830 | 4.50888 | 3286 ft | 74 kts | 264° |
| 2026-04-18 19:46 | 51.58711 | 4.50111 | 3571 ft | 65 kts | 260° |
| 2026-04-18 19:46 | 51.58634 | 4.49171 | 3553 ft | 92 kts | 271° |
| 2026-04-18 19:46 | 51.58550 | 4.48239 | 3901 ft | 83 kts | 262° |
| 2026-04-18 19:46 | 51.58409 | 4.47348 | 4088 ft | 82 kts | 258° |
| 2026-04-18 19:47 | 51.58238 | 4.46471 | 4283 ft | 81 kts | 256° |
| 2026-04-18 19:47 | 51.58065 | 4.45588 | 4476 ft | 83 kts | 256° |
| 2026-04-18 19:47 | 51.58228 | 4.44892 | 4474 ft | 101 kts | 10° |
| 2026-04-18 19:47 | 51.58291 | 4.46094 | 4389 ft | 124 kts | 102° |
| 2026-04-18 19:48 | 51.58144 | 4.47233 | 4824 ft | 92 kts | 98° |
| 2026-04-18 19:48 | 51.58044 | 4.48297 | 5097 ft | 45 kts | 116° |
| 2026-04-18 19:48 | 51.57932 | 4.48326 | 4032 ft | 104 kts | 252° |
| 2026-04-18 19:48 | 51.57662 | 4.46817 | 3740 ft | 128 kts | 259° |
| 2026-04-18 19:49 | 51.57430 | 4.45526 | 3816 ft | 113 kts | 259° |
| 2026-04-18 19:49 | 51.57286 | 4.44773 | 4605 ft | 5 kts | 143° |
| 2026-04-18 19:49 | 51.57062 | 4.44353 | 3525 ft | 125 kts | 244° |
| 2026-04-18 19:49 | 51.56403 | 4.44159 | 3627 ft | 126 kts | 120° |
| 2026-04-18 19:50 | 51.56018 | 4.45429 | 3669 ft | 122 kts | 113° |
| 2026-04-18 19:50 | 51.55711 | 4.46679 | 3760 ft | 118 kts | 106° |
| 2026-04-18 19:50 | 51.55496 | 4.47948 | 3795 ft | 118 kts | 105° |
| 2026-04-18 19:50 | 51.55460 | 4.49177 | 3950 ft | 103 kts | 75° |
| 2026-04-18 19:51 | 51.55684 | 4.50218 | 3981 ft | 102 kts | 40° |
| 2026-04-18 19:51 | 51.56287 | 4.50053 | 3895 ft | 101 kts | 315° |
| 2026-04-18 19:51 | 51.56794 | 4.49227 | 3749 ft | 104 kts | 316° |
| 2026-04-18 19:51 | 51.57287 | 4.48359 | 3632 ft | 105 kts | 314° |
| 2026-04-18 19:52 | 51.57771 | 4.47501 | 3546 ft | 104 kts | 316° |
| 2026-04-18 19:52 | 51.58248 | 4.46647 | 3427 ft | 102 kts | 313° |
| 2026-04-18 19:52 | 51.58716 | 4.45807 | 3370 ft | 98 kts | 317° |
| 2026-04-18 19:52 | 51.59231 | 4.45124 | 3301 ft | 94 kts | 327° |
| 2026-04-18 19:53 | 51.59778 | 4.44611 | 3236 ft | 90 kts | 334° |
| 2026-04-18 19:53 | 51.60352 | 4.44142 | 3143 ft | 95 kts | 335° |
| 2026-04-18 19:53 | 51.61463 | 4.43286 | 2925 ft | 85 kts | 340° |
| 2026-04-18 19:54 | 51.62059 | 4.42965 | 2778 ft | 91 kts | 346° |
| 2026-04-18 19:54 | 51.62670 | 4.42902 | 2641 ft | 93 kts | 349° |
| 2026-04-18 19:54 | 51.63258 | 4.42892 | 2613 ft | 86 kts | 45° |
| 2026-04-18 19:54 | 51.62944 | 4.43733 | 2428 ft | 107 kts | 148° |
| 2026-04-18 19:55 | 51.62277 | 4.44255 | 2198 ft | 106 kts | 155° |
| 2026-04-18 19:55 | 51.61599 | 4.44700 | 1952 ft | 106 kts | 158° |
| 2026-04-18 19:55 | 51.60934 | 4.45176 | 1712 ft | 104 kts | 154° |
| 2026-04-18 19:55 | 51.60323 | 4.45697 | 1523 ft | 96 kts | 140° |
| 2026-04-18 19:56 | 51.59824 | 4.46350 | 1330 ft | 93 kts | 129° |
| 2026-04-18 19:56 | 51.59405 | 4.47139 | 1102 ft | 94 kts | 137° |
| 2026-04-18 19:56 | 51.58839 | 4.47697 | 898 ft | 96 kts | 148° |
| 2026-04-18 19:56 | 51.58306 | 4.48300 | 816 ft | 93 kts | 134° |
| 2026-04-18 19:57 | 51.57940 | 4.49140 | 732 ft | 92 kts | 115° |
| 2026-04-18 19:57 | 51.57608 | 4.50019 | 713 ft | 93 kts | 126° |
| 2026-04-18 19:57 | 51.57168 | 4.50823 | 700 ft | 99 kts | 129° |
| 2026-04-18 19:57 | 51.56692 | 4.51683 | 619 ft | 105 kts | 134° |
| 2026-04-18 19:58 | 51.56257 | 4.52559 | 637 ft | 92 kts | 113° |
| 2026-04-18 19:58 | 51.56186 | 4.53529 | 606 ft | 94 kts | 80° |
| 2026-04-18 19:58 | 51.56218 | 4.54582 | 630 ft | 91 kts | 84° |
| 2026-04-18 19:58 | 51.56332 | 4.55505 | 729 ft | 84 kts | 70° |
| 2026-04-18 19:59 | 51.56483 | 4.56377 | 773 ft | 78 kts | 70° |
| 2026-04-18 19:59 | 51.56269 | 4.57133 | 655 ft | 89 kts | 162° |
| 2026-04-18 19:59 | 51.55840 | 4.56681 | 422 ft | 77 kts | 266° |
| 2026-04-18 19:59 | 51.55655 | 4.55887 | 171 ft | 75 kts | 247° |
| 2026-04-18 20:00 | 51.55390 | 4.55076 | 335 ft | 86 kts | 244° |
| 2026-04-18 20:00 | 51.54888 | 4.54625 | 502 ft | 98 kts | 165° |
| 2026-04-18 20:00 | 51.54684 | 4.55516 | 592 ft | 101 kts | 55° |
| 2026-04-18 20:00 | 51.54984 | 4.56540 | 773 ft | 102 kts | 61° |
| 2026-04-18 20:01 | 51.55278 | 4.57575 | 840 ft | 93 kts | 62° |
| 2026-04-18 20:01 | 51.55585 | 4.58339 | 791 ft | 77 kts | 29° |
| 2026-04-18 20:01 | 51.56103 | 4.58350 | 674 ft | 80 kts | 332° |
| 2026-04-18 20:01 | 51.56213 | 4.57583 | 525 ft | 85 kts | 237° |
| 2026-04-18 20:02 | 51.55902 | 4.56860 | 314 ft | 72 kts | 252° |
| 2026-04-18 20:02 | 51.55731 | 4.56153 | 111 ft | 65 kts | 253° |
| 2026-04-18 20:02 | 51.55564 | 4.55558 | 28 ft | 45 kts | 245° |
| 2026-04-18 20:02 | 51.55503 | 4.55355 | 31 ft | 14 kts | 246° |
| 2026-04-18 20:03 | 51.55465 | 4.55206 | 31 ft | 15 kts | 244° |
| 2026-04-18 20:03 | 51.55438 | 4.55098 | 32 ft | 3 kts | 274° |
| 2026-04-18 20:03 | 51.55463 | 4.55063 | 32 ft | 5 kts | 334° |
| 2026-04-18 20:03 | 51.55468 | 4.55027 | 32 ft | 10 kts | 250° |
| 2026-04-18 20:04 | 51.55434 | 4.54904 | 32 ft | 11 kts | 248° |
| 2026-04-18 20:04 | 51.55443 | 4.54852 | 33 ft | 4 kts | 346° |
| 2026-04-18 20:04 | 51.55458 | 4.54865 | 34 ft | 0 kts | 68° |